sensor_id;sensor_type;location;lat;lon;timestamp;pressure;altitude;pressure_sealevel;temperature
63297;BMP280;49419;51.716;-4.948;2023-06-14T00:00:19;101131.50;;;22.99
63297;BMP280;49419;51.716;-4.948;2023-06-14T00:02:55;101126.31;;;22.89
63297;BMP280;49419;51.716;-4.948;2023-06-14T00:05:34;101136.81;;;22.87
63297;BMP280;49419;51.716;-4.948;2023-06-14T00:10:48;101137.69;;;22.80
63297;BMP280;49419;51.716;-4.948;2023-06-14T00:13:13;101142.94;;;22.77
63297;BMP280;49419;51.716;-4.948;2023-06-14T00:15:48;101147.31;;;22.75
63297;BMP280;49419;51.716;-4.948;2023-06-14T00:18:13;101142.97;;;22.68
63297;BMP280;49419;51.716;-4.948;2023-06-14T00:20:44;101137.75;;;22.62
63297;BMP280;49419;51.716;-4.948;2023-06-14T00:23:10;101146.50;;;22.57
63297;BMP280;49419;51.716;-4.948;2023-06-14T00:25:46;101147.38;;;22.55
63297;BMP280;49419;51.716;-4.948;2023-06-14T00:34:19;101138.75;;;22.35
63297;BMP280;49419;51.716;-4.948;2023-06-14T00:36:49;101139.63;;;22.31
63297;BMP280;49419;51.716;-4.948;2023-06-14T00:41:48;101139.66;;;22.26
63297;BMP280;49419;51.716;-4.948;2023-06-14T00:44:27;101150.09;;;22.26
63297;BMP280;49419;51.716;-4.948;2023-06-14T00:47:02;101159.72;;;22.23
63297;BMP280;49419;51.716;-4.948;2023-06-14T00:49:43;101163.19;;;22.22
63297;BMP280;49419;51.716;-4.948;2023-06-14T00:52:15;101158.84;;;22.14
63297;BMP280;49419;51.716;-4.948;2023-06-14T00:54:44;101152.75;;;22.12
63297;BMP280;49419;51.716;-4.948;2023-06-14T01:19:55;101159.72;;;22.14
63297;BMP280;49419;51.716;-4.948;2023-06-14T01:57:17;101172.78;;;22.10
63297;BMP280;49419;51.716;-4.948;2023-06-14T02:00:10;101166.69;;;22.06
63297;BMP280;49419;51.716;-4.948;2023-06-14T02:08:11;101173.66;;;22.03
63297;BMP280;49419;51.716;-4.948;2023-06-14T02:11:08;101159.72;;;21.91
63297;BMP280;49419;51.716;-4.948;2023-06-14T02:14:10;101166.72;;;21.92
63297;BMP280;49419;51.716;-4.948;2023-06-14T02:37:15;101178.91;;;21.84
63297;BMP280;49419;51.716;-4.948;2023-06-14T02:39:46;101182.41;;;21.83
63297;BMP280;49419;51.716;-4.948;2023-06-14T02:44:48;101201.53;;;21.86
63297;BMP280;49419;51.716;-4.948;2023-06-14T02:47:48;101199.81;;;21.78
63297;BMP280;49419;51.716;-4.948;2023-06-14T02:50:41;101198.97;;;21.77
63297;BMP280;49419;51.716;-4.948;2023-06-14T02:53:21;101210.28;;;21.82
63297;BMP280;49419;51.716;-4.948;2023-06-14T02:56:17;101205.06;;;21.75
63297;BMP280;49419;51.716;-4.948;2023-06-14T02:59:09;101212.00;;;21.74
63297;BMP280;49419;51.716;-4.948;2023-06-14T03:02:02;101212.00;;;21.76
63297;BMP280;49419;51.716;-4.948;2023-06-14T03:04:38;101207.66;;;21.70
63297;BMP280;49419;51.716;-4.948;2023-06-14T03:07:45;101214.63;;;21.68
63297;BMP280;49419;51.716;-4.948;2023-06-14T03:10:47;101201.53;;;21.62
63297;BMP280;49419;51.716;-4.948;2023-06-14T03:13:19;101208.53;;;21.56
63297;BMP280;49419;51.716;-4.948;2023-06-14T03:15:59;101212.00;;;21.52
63297;BMP280;49419;51.716;-4.948;2023-06-14T03:18:43;101215.47;;;21.54
63297;BMP280;49419;51.716;-4.948;2023-06-14T03:21:45;101220.72;;;21.48
63297;BMP280;49419;51.716;-4.948;2023-06-14T03:24:33;101230.25;;;21.42
63297;BMP280;49419;51.716;-4.948;2023-06-14T03:27:04;101218.94;;;21.35
63297;BMP280;49419;51.716;-4.948;2023-06-14T03:29:37;101213.66;;;21.31
63297;BMP280;49419;51.716;-4.948;2023-06-14T03:32:16;101225.84;;;21.30
63297;BMP280;49419;51.716;-4.948;2023-06-14T03:34:45;101215.41;;;21.25
63297;BMP280;49419;51.716;-4.948;2023-06-14T03:37:38;101227.59;;;21.20
63297;BMP280;49419;51.716;-4.948;2023-06-14T03:40:33;101220.59;;;21.16
63297;BMP280;49419;51.716;-4.948;2023-06-14T03:43:22;101225.78;;;21.10
63297;BMP280;49419;51.716;-4.948;2023-06-14T03:46:20;101233.63;;;21.11
63297;BMP280;49419;51.716;-4.948;2023-06-14T03:48:56;101225.78;;;21.01
63297;BMP280;49419;51.716;-4.948;2023-06-14T03:51:49;101237.97;;;21.03
63297;BMP280;49419;51.716;-4.948;2023-06-14T03:54:26;101230.97;;;20.98
63297;BMP280;49419;51.716;-4.948;2023-06-14T04:00:47;101237.03;;;20.88
63297;BMP280;49419;51.716;-4.948;2023-06-14T04:03:36;101222.25;;;20.84
63297;BMP280;49419;51.716;-4.948;2023-06-14T04:09:01;101233.53;;;20.80
63297;BMP280;49419;51.716;-4.948;2023-06-14T04:11:29;101236.13;;;20.80
63297;BMP280;49419;51.716;-4.948;2023-06-14T04:13:59;101243.09;;;20.84
63297;BMP280;49419;51.716;-4.948;2023-06-14T04:16:41;101251.78;;;20.80
63297;BMP280;49419;51.716;-4.948;2023-06-14T04:19:22;101221.34;;;20.75
63297;BMP280;49419;51.716;-4.948;2023-06-14T04:21:57;101243.06;;;20.75
63297;BMP280;49419;51.716;-4.948;2023-06-14T04:24:31;101218.72;;;20.76
63297;BMP280;49419;51.716;-4.948;2023-06-14T04:27:20;101241.34;;;20.83
63297;BMP280;49419;51.716;-4.948;2023-06-14T04:29:55;101235.25;;;20.78
63297;BMP280;49419;51.716;-4.948;2023-06-14T04:32:37;101233.53;;;20.82
63297;BMP280;49419;51.716;-4.948;2023-06-14T04:35:08;101223.06;;;20.76
63297;BMP280;49419;51.716;-4.948;2023-06-14T04:37:41;101236.97;;;20.75
63297;BMP280;49419;51.716;-4.948;2023-06-14T04:40:14;101249.16;;;20.76
63297;BMP280;49419;51.716;-4.948;2023-06-14T04:43:04;101245.66;;;20.69
63297;BMP280;49419;51.716;-4.948;2023-06-14T04:45:37;101239.50;;;20.62
63297;BMP280;49419;51.716;-4.948;2023-06-14T04:48:04;101256.03;;;20.61
63297;BMP280;49419;51.716;-4.948;2023-06-14T04:50:33;101259.53;;;20.63
63297;BMP280;49419;51.716;-4.948;2023-06-14T04:53:09;101248.25;;;20.65
63297;BMP280;49419;51.716;-4.948;2023-06-14T04:55:58;101242.09;;;20.59
63297;BMP280;49419;51.716;-4.948;2023-06-14T04:58:55;101262.97;;;20.62
63297;BMP280;49419;51.716;-4.948;2023-06-14T05:01:40;101249.88;;;20.56
63297;BMP280;49419;51.716;-4.948;2023-06-14T05:07:31;101251.59;;;20.52
63297;BMP280;49419;51.716;-4.948;2023-06-14T05:10:18;101266.38;;;20.53
63297;BMP280;49419;51.716;-4.948;2023-06-14T05:13:19;101248.97;;;20.49
63297;BMP280;49419;51.716;-4.948;2023-06-14T05:16:24;101265.53;;;20.53
63297;BMP280;49419;51.716;-4.948;2023-06-14T05:19:01;101255.91;;;20.47
63297;BMP280;49419;51.716;-4.948;2023-06-14T05:22:12;101253.31;;;20.46
63297;BMP280;49419;51.716;-4.948;2023-06-14T05:24:47;101251.56;;;20.45
63297;BMP280;49419;51.716;-4.948;2023-06-14T05:27:14;101251.56;;;20.48
63297;BMP280;49419;51.716;-4.948;2023-06-14T05:29:47;101255.91;;;20.46
63297;BMP280;49419;51.716;-4.948;2023-06-14T05:32:24;101246.34;;;20.43
63297;BMP280;49419;51.716;-4.948;2023-06-14T05:34:57;101276.75;;;20.44
63297;BMP280;49419;51.716;-4.948;2023-06-14T05:37:27;101254.16;;;20.43
63297;BMP280;49419;51.716;-4.948;2023-06-14T05:39:54;101259.44;;;20.51
63297;BMP280;49419;51.716;-4.948;2023-06-14T05:45:35;101276.06;;;20.67
63297;BMP280;49419;51.716;-4.948;2023-06-14T05:50:59;101260.47;;;20.78
63297;BMP280;49419;51.716;-4.948;2023-06-14T05:53:44;101267.47;;;20.92
63297;BMP280;49419;51.716;-4.948;2023-06-14T05:56:14;101277.97;;;21.10
63297;BMP280;49419;51.716;-4.948;2023-06-14T05:58:40;101276.28;;;21.24
63297;BMP280;49419;51.716;-4.948;2023-06-14T06:01:15;101285.06;;;21.43
63297;BMP280;49419;51.716;-4.948;2023-06-14T06:03:46;101272.91;;;21.50
63297;BMP280;49419;51.716;-4.948;2023-06-14T06:06:19;101277.28;;;21.62
63297;BMP280;49419;51.716;-4.948;2023-06-14T06:08:45;101272.06;;;21.71
63297;BMP280;49419;51.716;-4.948;2023-06-14T06:11:18;101274.69;;;21.73
63297;BMP280;49419;51.716;-4.948;2023-06-14T06:13:44;101278.19;;;21.63
63297;BMP280;49419;51.716;-4.948;2023-06-14T06:16:13;101288.63;;;21.56
63297;BMP280;49419;51.716;-4.948;2023-06-14T06:18:47;101286.84;;;21.44
63297;BMP280;49419;51.716;-4.948;2023-06-14T06:21:16;101292.91;;;21.37
63297;BMP280;49419;51.716;-4.948;2023-06-14T06:23:44;101286.81;;;21.38
63297;BMP280;49419;51.716;-4.948;2023-06-14T06:26:19;101285.06;;;21.37
63297;BMP280;49419;51.716;-4.948;2023-06-14T06:28:48;101292.94;;;21.46
63297;BMP280;49419;51.716;-4.948;2023-06-14T06:31:15;101282.50;;;21.46
63297;BMP280;49419;51.716;-4.948;2023-06-14T06:34:33;101290.34;;;21.67
63297;BMP280;49419;51.716;-4.948;2023-06-14T06:40:16;101290.38;;;21.98
63297;BMP280;49419;51.716;-4.948;2023-06-14T06:43:10;101283.44;;;21.98
63297;BMP280;49419;51.716;-4.948;2023-06-14T06:46:09;101300.84;;;21.99
63297;BMP280;49419;51.716;-4.948;2023-06-14T06:49:01;101292.13;;;21.94
63297;BMP280;49419;51.716;-4.948;2023-06-14T06:54:56;101301.69;;;22.03
63297;BMP280;49419;51.716;-4.948;2023-06-14T06:57:27;101293.84;;;21.95
63297;BMP280;49419;51.716;-4.948;2023-06-14T07:00:44;101283.44;;;21.98
63297;BMP280;49419;51.716;-4.948;2023-06-14T07:03:32;101303.50;;;22.14
63297;BMP280;49419;51.716;-4.948;2023-06-14T07:08:44;101295.66;;;22.32
63297;BMP280;49419;51.716;-4.948;2023-06-14T07:11:21;101288.66;;;22.43
63297;BMP280;49419;51.716;-4.948;2023-06-14T07:13:49;101292.16;;;22.42
63297;BMP280;49419;51.716;-4.948;2023-06-14T07:16:33;101292.13;;;22.54
63297;BMP280;49419;51.716;-4.948;2023-06-14T07:19:08;101292.09;;;22.68
63297;BMP280;49419;51.716;-4.948;2023-06-14T07:21:43;101288.53;;;22.81
63297;BMP280;49419;51.716;-4.948;2023-06-14T07:24:10;101295.50;;;22.97
63297;BMP280;49419;51.716;-4.948;2023-06-14T07:26:40;101314.66;;;23.11
63297;BMP280;49419;51.716;-4.948;2023-06-14T07:29:28;101323.31;;;23.22
63297;BMP280;49419;51.716;-4.948;2023-06-14T07:32:02;101318.06;;;23.30
63297;BMP280;49419;51.716;-4.948;2023-06-14T07:34:30;101311.06;;;23.32
63297;BMP280;49419;51.716;-4.948;2023-06-14T07:36:57;101315.38;;;23.39
63297;BMP280;49419;51.716;-4.948;2023-06-14T07:39:23;101310.16;;;23.42
63297;BMP280;49419;51.716;-4.948;2023-06-14T07:41:52;101321.44;;;23.53
63297;BMP280;49419;51.716;-4.948;2023-06-14T07:44:18;101315.31;;;23.56
63297;BMP280;49419;51.716;-4.948;2023-06-14T07:46:52;101315.31;;;23.56
63297;BMP280;49419;51.716;-4.948;2023-06-14T07:54:44;101331.06;;;23.54
63297;BMP280;49419;51.716;-4.948;2023-06-14T07:57:21;101333.66;;;23.57
63297;BMP280;49419;51.716;-4.948;2023-06-14T07:59:47;101337.13;;;23.63
63297;BMP280;49419;51.716;-4.948;2023-06-14T08:07:52;101326.59;;;23.68
63297;BMP280;49419;51.716;-4.948;2023-06-14T08:13:52;101331.84;;;23.65
63297;BMP280;49419;51.716;-4.948;2023-06-14T08:19:42;101347.56;;;23.71
63297;BMP280;49419;51.716;-4.948;2023-06-14T08:22:08;101344.03;;;23.78
63297;BMP280;49419;51.716;-4.948;2023-06-14T08:24:45;101333.56;;;23.72
63297;BMP280;49419;51.716;-4.948;2023-06-14T08:29:58;101347.56;;;23.68
63297;BMP280;49419;51.716;-4.948;2023-06-14T08:32:53;101346.66;;;23.72
63297;BMP280;49419;51.716;-4.948;2023-06-14T08:39:01;101354.50;;;23.76
63297;BMP280;49419;51.716;-4.948;2023-06-14T08:47:31;101340.53;;;23.76
63297;BMP280;49419;51.716;-4.948;2023-06-14T08:50:24;101345.69;;;23.85
63297;BMP280;49419;51.716;-4.948;2023-06-14T08:53:41;101348.28;;;23.89
63297;BMP280;49419;51.716;-4.948;2023-06-14T08:56:30;101347.38;;;23.97
63297;BMP280;49419;51.716;-4.948;2023-06-14T08:59:19;101350.88;;;23.99
63297;BMP280;49419;51.716;-4.948;2023-06-14T09:02:20;101341.25;;;24.00
63297;BMP280;49419;51.716;-4.948;2023-06-14T09:05:00;101342.06;;;24.03
63297;BMP280;49419;51.716;-4.948;2023-06-14T09:07:44;101345.56;;;24.07
63297;BMP280;49419;51.716;-4.948;2023-06-14T09:10:29;101350.78;;;24.11
63297;BMP280;49419;51.716;-4.948;2023-06-14T09:13:18;101349.84;;;24.17
63297;BMP280;49419;51.716;-4.948;2023-06-14T09:15:55;101347.22;;;24.21
63297;BMP280;49419;51.716;-4.948;2023-06-14T09:18:46;101354.13;;;24.31
63297;BMP280;49419;51.716;-4.948;2023-06-14T09:21:17;101353.16;;;24.42
63297;BMP280;49419;51.716;-4.948;2023-06-14T09:24:01;101360.09;;;24.46
63297;BMP280;49419;51.716;-4.948;2023-06-14T09:26:31;101361.84;;;24.49
63297;BMP280;49419;51.716;-4.948;2023-06-14T09:29:12;101350.56;;;24.42
63297;BMP280;49419;51.716;-4.948;2023-06-14T09:31:52;101354.91;;;24.43
63297;BMP280;49419;51.716;-4.948;2023-06-14T09:34:31;101360.97;;;24.47
63297;BMP280;49419;51.716;-4.948;2023-06-14T09:37:40;101367.09;;;24.49
63297;BMP280;49419;51.716;-4.948;2023-06-14T09:40:50;101355.66;;;24.55
63297;BMP280;49419;51.716;-4.948;2023-06-14T09:44:10;101346.88;;;24.59
63297;BMP280;49419;51.716;-4.948;2023-06-14T09:46:54;101354.72;;;24.62
63297;BMP280;49419;51.716;-4.948;2023-06-14T09:49:25;101358.16;;;24.69
63297;BMP280;49419;51.716;-4.948;2023-06-14T09:52:01;101358.03;;;24.79
63297;BMP280;49419;51.716;-4.948;2023-06-14T09:54:49;101357.06;;;24.92
63297;BMP280;49419;51.716;-4.948;2023-06-14T09:57:25;101356.91;;;25.05
63297;BMP280;49419;51.716;-4.948;2023-06-14T10:00:15;101361.22;;;25.12
63297;BMP280;49419;51.716;-4.948;2023-06-14T10:02:58;101358.44;;;25.22
63297;BMP280;49419;51.716;-4.948;2023-06-14T10:05:29;101362.69;;;25.34
63297;BMP280;49419;51.716;-4.948;2023-06-14T10:08:04;101358.25;;;25.40
63297;BMP280;49419;51.716;-4.948;2023-06-14T10:10:35;101359.88;;;25.47
63297;BMP280;49419;51.716;-4.948;2023-06-14T10:13:33;101361.47;;;25.61
63297;BMP280;49419;51.716;-4.948;2023-06-14T10:16:10;101365.63;;;25.79
63297;BMP280;49419;51.716;-4.948;2023-06-14T10:18:49;101362.84;;;25.87
63297;BMP280;49419;51.716;-4.948;2023-06-14T10:24:56;101361.66;;;26.08
63297;BMP280;49419;51.716;-4.948;2023-06-14T10:27:26;101368.56;;;26.17
63297;BMP280;49419;51.716;-4.948;2023-06-14T10:30:09;101373.56;;;26.32
63297;BMP280;49419;51.716;-4.948;2023-06-14T10:33:06;101360.88;;;26.56
63297;BMP280;49419;51.716;-4.948;2023-06-14T10:35:40;101369.94;;;26.90
63297;BMP280;49419;51.716;-4.948;2023-06-14T10:38:20;101372.09;;;27.14
63297;BMP280;49419;51.716;-4.948;2023-06-14T10:41:05;101370.06;;;27.26
63297;BMP280;49419;51.716;-4.948;2023-06-14T10:43:39;101367.50;;;27.24
63297;BMP280;49419;51.716;-4.948;2023-06-14T10:46:29;101374.31;;;27.34
63297;BMP280;49419;51.716;-4.948;2023-06-14T10:49:00;101369.22;;;27.25
63297;BMP280;49419;51.716;-4.948;2023-06-14T10:51:50;101380.69;;;27.23
63297;BMP280;49419;51.716;-4.948;2023-06-14T10:54:23;101383.25;;;27.27
63297;BMP280;49419;51.716;-4.948;2023-06-14T10:56:58;101377.34;;;27.15
63297;BMP280;49419;51.716;-4.948;2023-06-14T10:59:31;101379.13;;;27.13
63297;BMP280;49419;51.716;-4.948;2023-06-14T11:05:08;101377.72;;;26.96
63297;BMP280;49419;51.716;-4.948;2023-06-14T11:11:01;101367.28;;;26.90
63297;BMP280;49419;51.716;-4.948;2023-06-14T11:13:40;101360.38;;;26.84
63297;BMP280;49419;51.716;-4.948;2023-06-14T11:16:33;101362.94;;;26.89
63297;BMP280;49419;51.716;-4.948;2023-06-14T11:19:23;101359.47;;;26.85
63297;BMP280;49419;51.716;-4.948;2023-06-14T11:22:03;101381.31;;;26.90
63297;BMP280;49419;51.716;-4.948;2023-06-14T11:24:28;101369.13;;;26.86
63297;BMP280;49419;51.716;-4.948;2023-06-14T11:27:01;101376.84;;;26.95
63297;BMP280;49419;51.716;-4.948;2023-06-14T11:29:28;101367.22;;;26.93
63297;BMP280;49419;51.716;-4.948;2023-06-14T11:32:00;101373.25;;;27.01
63297;BMP280;49419;51.716;-4.948;2023-06-14T11:34:29;101372.41;;;26.97
63297;BMP280;49419;51.716;-4.948;2023-06-14T11:37:04;101368.81;;;27.03
63297;BMP280;49419;51.716;-4.948;2023-06-14T11:39:45;101373.81;;;27.16
63297;BMP280;49419;51.716;-4.948;2023-06-14T11:42:15;101373.72;;;27.19
63297;BMP280;49419;51.716;-4.948;2023-06-14T11:44:41;101363.25;;;27.16
63297;BMP280;49419;51.716;-4.948;2023-06-14T11:47:10;101362.25;;;27.21
63297;BMP280;49419;51.716;-4.948;2023-06-14T11:49:38;101365.66;;;27.26
63297;BMP280;49419;51.716;-4.948;2023-06-14T11:52:09;101367.44;;;27.27
63297;BMP280;49419;51.716;-4.948;2023-06-14T11:54:34;101364.66;;;27.33
63297;BMP280;49419;51.716;-4.948;2023-06-14T11:57:04;101364.66;;;27.36
63297;BMP280;49419;51.716;-4.948;2023-06-14T11:59:32;101365.44;;;27.40
63297;BMP280;49419;51.716;-4.948;2023-06-14T12:02:19;101362.72;;;27.44
63297;BMP280;49419;51.716;-4.948;2023-06-14T12:04:48;101374.78;;;27.54
63297;BMP280;49419;51.716;-4.948;2023-06-14T12:07:21;101371.13;;;27.61
63297;BMP280;49419;51.716;-4.948;2023-06-14T12:12:28;101361.34;;;27.66
63297;BMP280;49419;51.716;-4.948;2023-06-14T12:15:12;101358.72;;;27.64
63297;BMP280;49419;51.716;-4.948;2023-06-14T12:17:48;101358.81;;;27.61
63297;BMP280;49419;51.716;-4.948;2023-06-14T12:20:29;101360.59;;;27.59
63297;BMP280;49419;51.716;-4.948;2023-06-14T12:22:55;101363.16;;;27.64
63297;BMP280;49419;51.716;-4.948;2023-06-14T12:25:34;101363.31;;;27.56
63297;BMP280;49419;51.716;-4.948;2023-06-14T12:28:22;101366.88;;;27.54
63297;BMP280;49419;51.716;-4.948;2023-06-14T12:30:50;101370.28;;;27.60
63297;BMP280;49419;51.716;-4.948;2023-06-14T12:33:27;101358.72;;;27.66
63297;BMP280;49419;51.716;-4.948;2023-06-14T12:35:55;101361.16;;;27.75
63297;BMP280;49419;51.716;-4.948;2023-06-14T12:38:24;101359.28;;;27.80
63297;BMP280;49419;51.716;-4.948;2023-06-14T12:40:55;101359.28;;;27.80
63297;BMP280;49419;51.716;-4.948;2023-06-14T12:43:35;101363.56;;;27.83
63297;BMP280;49419;51.716;-4.948;2023-06-14T12:46:25;101359.22;;;27.81
63297;BMP280;49419;51.716;-4.948;2023-06-14T12:48:54;101351.97;;;27.90
63297;BMP280;49419;51.716;-4.948;2023-06-14T12:54:39;101366.78;;;28.33
63297;BMP280;49419;51.716;-4.948;2023-06-14T12:57:06;101351.38;;;28.50
63297;BMP280;49419;51.716;-4.948;2023-06-14T12:59:48;101358.19;;;28.61
63297;BMP280;49419;51.716;-4.948;2023-06-14T13:02:40;101359.63;;;28.73
63297;BMP280;49419;51.716;-4.948;2023-06-14T13:05:09;101367.06;;;28.90
63297;BMP280;49419;51.716;-4.948;2023-06-14T13:07:59;101357.31;;;28.92
63297;BMP280;49419;51.716;-4.948;2023-06-14T13:10:50;101367.91;;;29.22
63297;BMP280;49419;51.716;-4.948;2023-06-14T13:13:25;101357.66;;;29.42
63297;BMP280;49419;51.716;-4.948;2023-06-14T13:15:53;101360.81;;;29.54
63297;BMP280;49419;51.716;-4.948;2023-06-14T13:18:22;101355.25;;;29.63
63297;BMP280;49419;51.716;-4.948;2023-06-14T13:20:53;101350.97;;;29.88
63297;BMP280;49419;51.716;-4.948;2023-06-14T13:23:53;101348.69;;;30.03
63297;BMP280;49419;51.716;-4.948;2023-06-14T13:26:40;101345.09;;;30.06
63297;BMP280;49419;51.716;-4.948;2023-06-14T13:29:06;101346.41;;;29.93
63297;BMP280;49419;51.716;-4.948;2023-06-14T13:31:32;101349.16;;;29.90
63297;BMP280;49419;51.716;-4.948;2023-06-14T13:34:00;101340.53;;;29.83
63297;BMP280;49419;51.716;-4.948;2023-06-14T13:36:34;101345.31;;;30.00
63297;BMP280;49419;51.716;-4.948;2023-06-14T13:39:09;101356.88;;;30.23
63297;BMP280;49419;51.716;-4.948;2023-06-14T13:41:45;101352.00;;;30.37
63297;BMP280;49419;51.716;-4.948;2023-06-14T13:44:28;101336.03;;;30.40
63297;BMP280;49419;51.716;-4.948;2023-06-14T13:47:09;101346.03;;;30.56
63297;BMP280;49419;51.716;-4.948;2023-06-14T13:49:52;101349.09;;;30.70
63297;BMP280;49419;51.716;-4.948;2023-06-14T13:52:20;101336.91;;;30.90
63297;BMP280;49419;51.716;-4.948;2023-06-14T13:54:51;101354.84;;;31.30
63297;BMP280;49419;51.716;-4.948;2023-06-14T13:57:24;101335.81;;;32.08
63297;BMP280;49419;51.716;-4.948;2023-06-14T13:59:54;101336.63;;;33.50
63297;BMP280;49419;51.716;-4.948;2023-06-14T14:02:28;101331.72;;;34.99
63297;BMP280;49419;51.716;-4.948;2023-06-14T14:05:06;101332.19;;;36.01
63297;BMP280;49419;51.716;-4.948;2023-06-14T14:07:53;101330.56;;;37.01
63297;BMP280;49419;51.716;-4.948;2023-06-14T14:10:30;101331.25;;;37.32
63297;BMP280;49419;51.716;-4.948;2023-06-14T14:13:16;101325.25;;;37.29
63297;BMP280;49419;51.716;-4.948;2023-06-14T14:15:46;101318.59;;;37.50
63297;BMP280;49419;51.716;-4.948;2023-06-14T14:18:12;101316.81;;;37.76
63297;BMP280;49419;51.716;-4.948;2023-06-14T14:20:38;101319.09;;;37.68
63297;BMP280;49419;51.716;-4.948;2023-06-14T14:23:06;101321.81;;;37.55
63297;BMP280;49419;51.716;-4.948;2023-06-14T14:25:34;101325.16;;;37.17
63297;BMP280;49419;51.716;-4.948;2023-06-14T14:28:03;101320.00;;;36.85
63297;BMP280;49419;51.716;-4.948;2023-06-14T14:30:34;101315.34;;;36.88
63297;BMP280;49419;51.716;-4.948;2023-06-14T14:33:00;101306.50;;;37.15
63297;BMP280;49419;51.716;-4.948;2023-06-14T14:35:26;101323.56;;;37.82
63297;BMP280;49419;51.716;-4.948;2023-06-14T14:37:57;101301.22;;;38.86
63297;BMP280;49419;51.716;-4.948;2023-06-14T14:40:26;101300.16;;;39.85
63297;BMP280;49419;51.716;-4.948;2023-06-14T14:42:56;101301.84;;;40.22
63297;BMP280;49419;51.716;-4.948;2023-06-14T14:45:22;101296.25;;;40.25
63297;BMP280;49419;51.716;-4.948;2023-06-14T14:48:01;101296.75;;;40.97
63297;BMP280;49419;51.716;-4.948;2023-06-14T14:50:27;101293.09;;;41.96
63297;BMP280;49419;51.716;-4.948;2023-06-14T14:52:55;101294.75;;;42.70
63297;BMP280;49419;51.716;-4.948;2023-06-14T14:55:22;101299.16;;;43.41
63297;BMP280;49419;51.716;-4.948;2023-06-14T14:57:57;101287.69;;;43.96
63297;BMP280;49419;51.716;-4.948;2023-06-14T15:00:37;101293.59;;;44.58
63297;BMP280;49419;51.716;-4.948;2023-06-14T15:03:11;101305.09;;;44.69
63297;BMP280;49419;51.716;-4.948;2023-06-14T15:05:44;101301.38;;;44.79
63297;BMP280;49419;51.716;-4.948;2023-06-14T15:08:24;101304.47;;;45.12
63297;BMP280;49419;51.716;-4.948;2023-06-14T15:10:56;101305.81;;;45.35
63297;BMP280;49419;51.716;-4.948;2023-06-14T15:13:41;101311.94;;;45.63
63297;BMP280;49419;51.716;-4.948;2023-06-14T15:16:10;101292.47;;;46.04
63297;BMP280;49419;51.716;-4.948;2023-06-14T15:18:36;101295.59;;;46.43
63297;BMP280;49419;51.716;-4.948;2023-06-14T15:21:03;101298.19;;;47.12
63297;BMP280;49419;51.716;-4.948;2023-06-14T15:23:49;101296.53;;;47.19
63297;BMP280;49419;51.716;-4.948;2023-06-14T15:26:19;101302.44;;;46.90
63297;BMP280;49419;51.716;-4.948;2023-06-14T15:28:50;101301.53;;;46.64
63297;BMP280;49419;51.716;-4.948;2023-06-14T15:31:24;101298.22;;;46.18
63297;BMP280;49419;51.716;-4.948;2023-06-14T15:34:00;101298.31;;;45.82
63297;BMP280;49419;51.716;-4.948;2023-06-14T15:36:26;101309.88;;;45.12
63297;BMP280;49419;51.716;-4.948;2023-06-14T15:38:59;101305.97;;;44.79
63297;BMP280;49419;51.716;-4.948;2023-06-14T15:41:27;101303.19;;;44.88
63297;BMP280;49419;51.716;-4.948;2023-06-14T15:43:59;101304.22;;;44.78
63297;BMP280;49419;51.716;-4.948;2023-06-14T15:46:42;101303.78;;;43.59
63297;BMP280;49419;51.716;-4.948;2023-06-14T15:49:13;101307.13;;;42.93
63297;BMP280;49419;51.716;-4.948;2023-06-14T15:51:53;101303.22;;;43.26
63297;BMP280;49419;51.716;-4.948;2023-06-14T15:54:28;101303.81;;;44.35
63297;BMP280;49419;51.716;-4.948;2023-06-14T15:56:54;101308.84;;;45.58
63297;BMP280;49419;51.716;-4.948;2023-06-14T15:59:19;101297.22;;;46.54
63297;BMP280;49419;51.716;-4.948;2023-06-14T16:01:45;101301.38;;;47.33
63297;BMP280;49419;51.716;-4.948;2023-06-14T16:04:15;101308.00;;;47.63
63297;BMP280;49419;51.716;-4.948;2023-06-14T16:06:43;101307.66;;;47.66
63297;BMP280;49419;51.716;-4.948;2023-06-14T16:09:17;101287.19;;;47.88
63297;BMP280;49419;51.716;-4.948;2023-06-14T16:11:44;101292.69;;;47.62
63297;BMP280;49419;51.716;-4.948;2023-06-14T16:14:31;101308.28;;;46.60
63297;BMP280;49419;51.716;-4.948;2023-06-14T16:17:04;101293.78;;;46.00
63297;BMP280;49419;51.716;-4.948;2023-06-14T16:19:32;101302.63;;;45.75
63297;BMP280;49419;51.716;-4.948;2023-06-14T16:22:01;101288.72;;;45.88
63297;BMP280;49419;51.716;-4.948;2023-06-14T16:24:32;101304.22;;;46.39
63297;BMP280;49419;51.716;-4.948;2023-06-14T16:27:10;101292.50;;;46.73
63297;BMP280;49419;51.716;-4.948;2023-06-14T16:29:49;101295.19;;;46.73
63297;BMP280;49419;51.716;-4.948;2023-06-14T16:32:14;101299.13;;;46.09
63297;BMP280;49419;51.716;-4.948;2023-06-14T16:34:42;101288.47;;;45.55
63297;BMP280;49419;51.716;-4.948;2023-06-14T16:37:09;101299.53;;;45.70
63297;BMP280;49419;51.716;-4.948;2023-06-14T16:39:38;101288.84;;;45.86
63297;BMP280;49419;51.716;-4.948;2023-06-14T16:42:18;101300.63;;;45.51
63297;BMP280;49419;51.716;-4.948;2023-06-14T16:44:47;101293.69;;;44.09
63297;BMP280;49419;51.716;-4.948;2023-06-14T16:47:16;101310.88;;;43.21
63297;BMP280;49419;51.716;-4.948;2023-06-14T16:49:43;101306.31;;;43.01
63297;BMP280;49419;51.716;-4.948;2023-06-14T16:52:13;101301.06;;;42.80
63297;BMP280;49419;51.716;-4.948;2023-06-14T16:54:44;101304.03;;;41.73
63297;BMP280;49419;51.716;-4.948;2023-06-14T16:57:28;101301.44;;;39.92
63297;BMP280;49419;51.716;-4.948;2023-06-14T17:00:02;101296.03;;;38.20
63297;BMP280;49419;51.716;-4.948;2023-06-14T17:02:28;101310.00;;;37.45
63297;BMP280;49419;51.716;-4.948;2023-06-14T17:04:58;101300.00;;;37.05
63297;BMP280;49419;51.716;-4.948;2023-06-14T17:07:37;101298.03;;;36.66
63297;BMP280;49419;51.716;-4.948;2023-06-14T17:10:08;101298.97;;;36.36
63297;BMP280;49419;51.716;-4.948;2023-06-14T17:12:33;101297.53;;;36.31
63297;BMP280;49419;51.716;-4.948;2023-06-14T17:15:02;101302.47;;;36.52
63297;BMP280;49419;51.716;-4.948;2023-06-14T17:17:41;101303.03;;;36.86
63297;BMP280;49419;51.716;-4.948;2023-06-14T17:20:15;101313.28;;;37.21
63297;BMP280;49419;51.716;-4.948;2023-06-14T17:22:44;101302.78;;;37.59
63297;BMP280;49419;51.716;-4.948;2023-06-14T17:25:11;101310.19;;;37.82